Abel, Alabama
Current Conditions -  °F | °C
As of 2:53 PM on Sunday 23 Nov 2014 (Local Time) from KANB Reporting Station
Light Rain Light Rain  
Wind Chill: 15°   Ceiling: 10000
Heat Index: 15°   Visibility: 6mi
Dew Point: 13°   Wind: 7mph
Humidity: 90%   Direction: 50°NE
Pressure: 29.62"   Gusts: NA
Location:  33.4483°N, 85.6826°W
Report Text: KANB 232053Z AUTO 05006KT 6SM -RA BR SCT024 SCT038 OVC100 15/13 A2962 RMK AO2 PRESFR SLP029 P0037 60045 T01500133 55042 $
Loading
Personal Weather Stations






























Interactive Weather Map New forecast layout! Learn more

10-Day Weather Forecast

Advertisements
Track Severe Weather on mobile